WetterOnline ( https://www.wetteronline.de )

Wetter aktuell Halle (Saale)

Aktuelles Wetter: Leipzig/Halle (136m)

6-stündlich | Neueste Meldungen
Ortszeit Temperatur Wetter
Sa, 24.10. 20:00 13.4° C fast wolkenlos
Sa, 24.10. 14:00 16.4° C wolkig
Sa, 24.10. 8:00 10.7° C leicht bewölkt
Sa, 24.10. 2:00 12.0° C leicht bewölkt
Fr, 23.10. 20:00 15.1° C bedeckt
Fr, 23.10. 14:00 17.2° C bewölkt
Fr, 23.10. 8:00 14.7° C bewölkt
Fr, 23.10. 2:00 13.8° C wolkig
Ortszeit Temperatur Wetter
Sa, 24.10. 20:00 13.4° C fast wolkenlos
Sa, 24.10. 19:50 13° C -
Sa, 24.10. 19:40 13.3° C wolkenlos
Sa, 24.10. 19:30 13.7° C wolkenlos
Sa, 24.10. 19:20 13.7° C wolkenlos
Sa, 24.10. 19:10 13.9° C wolkenlos
Sa, 24.10. 19:00 13.9° C leicht bewölkt
Sa, 24.10. 18:30 14.8° C wolkenlos
Sa, 24.10. 18:00 14.9° C leicht bewölkt
Sa, 24.10. 17:30 15.9° C wolkenlos
Sa, 24.10. 17:00 16.5° C leicht bewölkt
Sa, 24.10. 16:30 16.6° C leicht bewölkt
Ortszeit Relative Feuchte Sichtweite
Sa, 24.10. 20:00 75% 65 km
Sa, 24.10. 14:00 65% 60 km
Sa, 24.10. 8:00 96% 20 km
Sa, 24.10. 2:00 96% 20 km
Fr, 23.10. 20:00 87% 45 km
Fr, 23.10. 14:00 78% 50 km
Fr, 23.10. 8:00 83% 30 km
Fr, 23.10. 2:00 82% 35 km
Ortszeit Relative Feuchte Sichtweite
Sa, 24.10. 20:00 75% 65 km
Sa, 24.10. 19:50 77% >10 km
Sa, 24.10. 19:40 75% -
Sa, 24.10. 19:30 73% 55 km
Sa, 24.10. 19:20 73% -
Sa, 24.10. 19:10 73% -
Sa, 24.10. 19:00 72% 65 km
Sa, 24.10. 18:30 68% 65 km
Sa, 24.10. 18:00 68% 70 km
Sa, 24.10. 17:30 64% 65 km
Sa, 24.10. 17:00 61% 70 km
Sa, 24.10. 16:30 61% 65 km
Ortszeit Niederschlagsmenge Niederschlagsart
Sa, 24.10. 20:00 0.0 l/m2 in 12 Std. -
Sa, 24.10. 14:00 0.0 l/m2 in 6 Std. -
Sa, 24.10. 8:00 0.1 l/m2 in 12 Std. -
Sa, 24.10. 2:00 0.1 l/m2 in 6 Std. Regen
Fr, 23.10. 20:00 0.1 l/m2 in 12 Std. Regen
Fr, 23.10. 14:00 0.1 l/m2 in 6 Std. Regen
Fr, 23.10. 8:00 0.0 l/m2 in 12 Std. -
Fr, 23.10. 2:00 0.0 l/m2 in 6 Std. -
Ortszeit Niederschlagsmenge Niederschlagsart
Sa, 24.10. 20:00 0.0 l/m2 in 1 Std. -
Sa, 24.10. 19:50 keine Meldung -
Sa, 24.10. 19:40 keine Meldung -
Sa, 24.10. 19:30 0.0 l/m2 in 1 Std. -
Sa, 24.10. 19:20 keine Meldung -
Sa, 24.10. 19:10 keine Meldung -
Sa, 24.10. 19:00 0.0 l/m2 in 1 Std. -
Sa, 24.10. 18:30 0.0 l/m2 in 1 Std. -
Sa, 24.10. 18:00 0.0 l/m2 in 1 Std. -
Sa, 24.10. 17:30 0.0 l/m2 in 1 Std. -
Sa, 24.10. 17:00 0.0 l/m2 in 1 Std. -
Sa, 24.10. 16:30 0.0 l/m2 in 1 Std. -
Ortszeit Stärke Spitze Richtung
km/h Bft. km/h Grad Sektor
Sa, 24.10. 20:00 20 4 41 220° SW
Sa, 24.10. 14:00 26 4 46 240° SW
Sa, 24.10. 8:00 13 3 22 220° SW
Sa, 24.10. 2:00 17 3 24 250° W
Fr, 23.10. 20:00 20 4 35 240° SW
Fr, 23.10. 14:00 17 3 22 200° S
Fr, 23.10. 8:00 11 2 22 200° S
Fr, 23.10. 2:00 11 2 25 260° W
Ortszeit Stärke Spitze Richtung
km/h Bft. km/h Grad Sektor
Sa, 24.10. 20:00 20 4 30 220° SW
Sa, 24.10. 19:50 22 4 - 220° SW
Sa, 24.10. 19:40 20 4 - 220° SW
Sa, 24.10. 19:30 22 4 29 220° SW
Sa, 24.10. 19:20 22 4 - 220° SW
Sa, 24.10. 19:10 22 4 - 220° SW
Sa, 24.10. 19:00 24 4 35 220° SW
Sa, 24.10. 18:30 24 4 35 230° SW
Sa, 24.10. 18:00 25 4 32 220° SW
Sa, 24.10. 17:30 22 4 32 220° SW
Sa, 24.10. 17:00 24 4 35 220° SW
Sa, 24.10. 16:30 25 4 36 220° SW
Ortszeit Untergrenze Bedeckung Gattung
total tief tief mittel hoch
Sa, 24.10. 20:00 2400 m 1/8 1/8 - Ac -
Sa, 24.10. 14:00 900 m 5/8 5/8 Cu - -
Sa, 24.10. 8:00 1800 m 3/8 3/8 Sc - -
Sa, 24.10. 2:00 3300 m 5/8 2/8 - Ac Ci
Fr, 23.10. 20:00 780 m 8/8 7/8 Sc - -
Fr, 23.10. 14:00 960 m 7/8 7/8 Cu - -
Fr, 23.10. 8:00 870 m 7/8 7/8 Sc - -
Fr, 23.10. 2:00 3000 m 7/8 7/8 - As -
Ortszeit Bedeckungsgrad in Achtel und Wolkenuntergrenze
Sa, 24.10. 20:00 1(2400m)
Sa, 24.10. 19:50 keine Wolken(unter 1500 m)
Sa, 24.10. 19:40 keine Wolken
Sa, 24.10. 19:30 keine Wolken
Sa, 24.10. 19:20 keine Wolken
Sa, 24.10. 19:10 keine Wolken
Sa, 24.10. 19:00 1(2400m)
Sa, 24.10. 18:30 keine Wolken
Sa, 24.10. 18:00 1(3000m)
Sa, 24.10. 17:30 keine Wolken
Sa, 24.10. 17:00 1(1200m)
Sa, 24.10. 16:30 2(1200m)
Ortszeit Luftdruck NN (hPa) Tendenz (hPa in 3 Std.)
Sa, 24.10. 20:00 1014 + 0,1
Sa, 24.10. 14:00 1015 - 0,4
Sa, 24.10. 8:00 1014 + 0,7
Sa, 24.10. 2:00 1012 + 0,6
Fr, 23.10. 20:00 1011 + 0,4
Fr, 23.10. 14:00 1011 - 1,3
Fr, 23.10. 8:00 1013 - 0,4
Fr, 23.10. 2:00 1014 - 0,3
Ortszeit Luftdruck NN (hPa) Tendenz (hPa in 3 Std.)
Sa, 24.10. 20:00 1014 + 0,1
Sa, 24.10. 19:50 1013 keine Meldung
Sa, 24.10. 19:40 1014 keine Meldung
Sa, 24.10. 19:30 1014 0,0
Sa, 24.10. 19:20 1014 keine Meldung
Sa, 24.10. 19:10 1014 keine Meldung
Sa, 24.10. 19:00 1014 - 0,4
Sa, 24.10. 18:30 1014 - 0,6
Sa, 24.10. 18:00 1014 - 0,8
Sa, 24.10. 17:30 1014 - 0,8
Sa, 24.10. 17:00 1014 - 1,0
Sa, 24.10. 16:30 1014 - 0,8
Ortszeit Schneehöhe (cm)
Sa, 24.10. 20:00 0
Sa, 24.10. 14:00 0
Sa, 24.10. 8:00 0
Sa, 24.10. 2:00 0
Fr, 23.10. 20:00 0
Fr, 23.10. 14:00 0
Fr, 23.10. 8:00 0
Fr, 23.10. 2:00 0
Ortszeit Schneehöhe (cm)
Sa, 24.10. 20:00 0
Sa, 24.10. 19:50 -
Sa, 24.10. 19:40 0
Sa, 24.10. 19:30 0
Sa, 24.10. 19:20 0
Sa, 24.10. 19:10 0
Sa, 24.10. 19:00 0
Sa, 24.10. 18:30 0
Sa, 24.10. 18:00 0
Sa, 24.10. 17:30 0
Sa, 24.10. 17:00 0
Sa, 24.10. 16:30 0
Link zu dieser Seite / Seite empfehlen

Das Wetter in ...